createdAt,value
2017-11-21T00:01:38.137Z,15.43
2017-11-21T00:04:05.695Z,17.70
2017-11-21T00:06:33.226Z,12.43
2017-11-21T00:09:01.552Z,16.73
2017-11-21T00:11:29.088Z,16.30
2017-11-21T00:13:56.653Z,12.50
2017-11-21T00:16:24.190Z,17.90
2017-11-21T00:18:52.504Z,15.73
2017-11-21T00:21:20.044Z,12.80
2017-11-21T00:23:47.609Z,19.90
2017-11-21T00:26:15.148Z,15.10
2017-11-21T00:28:42.713Z,14.57
2017-11-21T00:31:10.251Z,16.87
2017-11-21T00:33:38.576Z,12.43
2017-11-21T00:36:06.118Z,13.40
2017-11-21T00:38:33.679Z,13.07
2017-11-21T00:41:01.229Z,10.53
2017-11-21T00:43:28.807Z,11.30
2017-11-21T00:45:57.118Z,12.37
2017-11-21T00:48:24.686Z,15.47
2017-11-21T00:50:52.227Z,10.70
2017-11-21T00:53:19.801Z,13.33
2017-11-21T00:55:47.344Z,11.53
2017-11-21T00:58:14.908Z,12.87
2017-11-21T01:00:42.451Z,13.23
2017-11-21T01:03:10.028Z,10.17
2017-11-21T01:05:37.572Z,12.93
2017-11-21T01:08:05.132Z,11.00
2017-11-21T01:10:32.678Z,10.37
2017-11-21T01:13:00.236Z,11.63
2017-11-21T01:15:27.775Z,9.80
2017-11-21T01:17:55.332Z,10.53
2017-11-21T01:20:23.641Z,14.90
2017-11-21T01:22:51.197Z,10.10
2017-11-21T01:25:18.740Z,10.67
2017-11-21T01:27:46.300Z,10.40
2017-11-21T01:30:13.842Z,13.37
2017-11-21T01:32:42.167Z,13.67
2017-11-21T01:35:09.731Z,10.60
2017-11-21T01:37:37.278Z,10.53
2017-11-21T01:42:40.700Z,12.40
2017-11-21T01:45:08.235Z,12.60
2017-11-21T01:47:35.796Z,11.37
2017-11-21T01:50:03.335Z,11.07
2017-11-21T01:52:31.671Z,11.30
2017-11-21T01:54:59.200Z,9.83
2017-11-21T01:57:26.761Z,10.87
2017-11-21T01:59:54.301Z,9.67
2017-11-21T02:02:21.856Z,13.07
2017-11-21T02:04:50.176Z,11.77
2017-11-21T02:07:17.704Z,11.03
2017-11-21T02:09:45.268Z,8.87
2017-11-21T02:12:12.799Z,11.10
2017-11-21T02:14:41.126Z,12.83
2017-11-21T02:17:08.672Z,12.30
2017-11-21T02:19:36.224Z,11.93
2017-11-21T02:22:03.756Z,10.40
2017-11-21T02:24:31.314Z,10.77
2017-11-21T02:26:58.840Z,11.60
2017-11-21T02:29:27.157Z,8.50
2017-11-21T02:31:55.462Z,11.50
2017-11-21T02:34:23.017Z,11.80
2017-11-21T02:36:50.544Z,9.00
2017-11-21T02:39:18.098Z,11.60
2017-11-21T02:41:45.630Z,9.73
2017-11-21T02:44:13.188Z,11.83
2017-11-21T02:46:40.707Z,10.00
2017-11-21T02:49:08.271Z,8.77
2017-11-21T02:51:35.806Z,10.10
2017-11-21T02:54:04.135Z,11.07
2017-11-21T02:56:31.664Z,9.63
2017-11-21T02:58:59.223Z,11.47
2017-11-21T03:01:26.760Z,11.00
2017-11-21T03:03:54.328Z,10.13
2017-11-21T03:06:22.628Z,10.57
2017-11-21T03:08:50.175Z,11.83
2017-11-21T03:11:18.468Z,7.90
2017-11-21T03:13:46.022Z,8.70
2017-11-21T03:16:13.556Z,13.07
2017-11-21T03:18:41.877Z,8.40
2017-11-21T03:24:17.178Z,8.00
2017-11-21T03:26:44.708Z,8.17
2017-11-21T03:29:12.263Z,7.57
2017-11-21T03:31:39.795Z,11.47
2017-11-21T03:34:07.352Z,11.20
2017-11-21T03:36:35.648Z,9.13
2017-11-21T03:39:03.209Z,10.50
2017-11-21T03:41:30.744Z,11.03
2017-11-21T03:46:55.976Z,11.70
2017-11-21T03:49:23.535Z,14.07
2017-11-21T03:51:51.833Z,9.83
2017-11-21T03:54:19.391Z,11.23
2017-11-21T03:56:46.928Z,10.57
2017-11-21T03:59:15.240Z,11.00
2017-11-21T04:01:42.788Z,13.57
2017-11-21T04:04:10.345Z,11.10
2017-11-21T04:06:37.885Z,13.63
2017-11-21T04:09:05.458Z,13.03
2017-11-21T04:11:32.984Z,11.33
2017-11-21T04:14:00.547Z,11.20
2017-11-21T04:16:28.856Z,14.13
2017-11-21T04:18:56.441Z,12.03
2017-11-21T04:21:23.971Z,11.90
2017-11-21T04:23:51.535Z,13.03
2017-11-21T04:26:19.071Z,11.70
2017-11-21T04:28:47.400Z,14.47
2017-11-21T04:31:14.941Z,11.70
2017-11-21T04:33:42.497Z,10.70
2017-11-21T04:36:10.032Z,10.23
2017-11-21T04:38:38.364Z,12.33
2017-11-21T04:41:05.902Z,15.57
2017-11-21T04:43:33.462Z,11.80
2017-11-21T04:46:00.984Z,11.43
2017-11-21T04:48:29.324Z,12.43
2017-11-21T04:50:57.633Z,14.60
2017-11-21T04:53:25.957Z,15.77
2017-11-21T04:55:53.492Z,11.67
2017-11-21T04:58:21.020Z,12.10
2017-11-21T05:00:49.357Z,14.07
2017-11-21T05:03:16.907Z,15.50
2017-11-21T05:05:44.480Z,13.97
2017-11-21T05:08:12.022Z,12.27
2017-11-21T05:10:39.584Z,14.03
2017-11-21T05:13:07.113Z,14.13
2017-11-21T05:15:35.439Z,14.43
2017-11-21T05:18:02.977Z,14.60
2017-11-21T05:20:30.541Z,15.03
2017-11-21T05:22:58.077Z,12.00
2017-11-21T05:25:26.392Z,12.43
2017-11-21T05:27:53.922Z,12.00
2017-11-21T05:30:21.475Z,11.90
2017-11-21T05:33:01.609Z,12.90
2017-11-21T05:35:29.184Z,12.73
2017-11-21T05:37:57.480Z,15.23
2017-11-21T05:40:25.036Z,18.87
2017-11-21T05:42:52.570Z,18.30
2017-11-21T05:45:20.130Z,13.60
2017-11-21T05:47:48.422Z,14.33
2017-11-21T05:50:42.348Z,15.30
2017-11-21T05:53:09.881Z,16.90
2017-11-21T05:55:43.915Z,16.00
2017-11-21T05:58:11.453Z,12.53
2017-11-21T06:00:39.008Z,11.80
2017-11-21T06:03:06.542Z,13.10
2017-11-21T06:05:34.861Z,10.20
2017-11-21T06:08:02.392Z,11.80
2017-11-21T06:10:30.712Z,9.80
2017-11-21T06:12:58.236Z,9.07
2017-11-21T06:15:25.796Z,12.20
2017-11-21T06:17:53.324Z,12.07
2017-11-21T06:20:20.884Z,8.00
2017-11-21T06:22:48.439Z,10.50
2017-11-21T06:25:15.984Z,9.50
2017-11-21T06:27:43.508Z,9.80
2017-11-21T06:51:26.657Z,17.00
2017-11-21T06:53:54.203Z,18.07
2017-11-21T06:56:22.532Z,21.23
2017-11-21T06:58:50.077Z,17.43
2017-11-21T07:01:17.636Z,23.17
2017-11-21T07:03:45.172Z,15.33
2017-11-21T07:06:12.733Z,15.07
2017-11-21T07:08:40.278Z,15.87
2017-11-21T07:11:08.605Z,12.30
2017-11-21T07:13:36.139Z,15.23
2017-11-21T07:16:03.708Z,10.83
2017-11-21T07:18:31.255Z,12.97
2017-11-21T07:20:58.854Z,9.53
2017-11-21T07:23:26.392Z,9.60
2017-11-21T07:25:53.944Z,9.70
2017-11-21T07:28:21.476Z,8.33
2017-11-21T07:30:49.792Z,7.60
2017-11-21T07:33:17.319Z,11.23
2017-11-21T07:35:45.644Z,13.33
2017-11-21T07:38:13.172Z,11.03
2017-11-21T07:40:40.735Z,10.17
2017-11-21T07:43:08.270Z,8.43
2017-11-21T07:45:36.600Z,6.37
2017-11-21T07:48:04.131Z,6.87
2017-11-21T07:50:31.691Z,7.90
2017-11-21T07:52:59.221Z,9.30
2017-11-21T07:55:27.553Z,8.27
2017-11-21T07:57:55.084Z,7.17
2017-11-21T08:00:22.644Z,8.53
2017-11-21T08:02:50.169Z,6.60
2017-11-21T08:05:17.717Z,9.33
2017-11-21T08:07:45.249Z,11.10
2017-11-21T08:10:12.819Z,13.67
2017-11-21T08:12:40.347Z,11.70
2017-11-21T08:15:07.908Z,10.07
2017-11-21T08:17:35.443Z,12.57
2017-11-21T08:20:03.759Z,16.37
2017-11-21T08:22:31.301Z,17.30
2017-11-21T08:24:58.854Z,15.40
2017-11-21T08:27:26.388Z,19.77
2017-11-21T08:29:54.729Z,18.63
2017-11-21T08:32:22.271Z,21.73
2017-11-21T08:34:49.827Z,19.67
2017-11-21T08:37:17.364Z,22.27
2017-11-21T08:39:44.928Z,25.53
2017-11-21T08:42:12.473Z,22.57
2017-11-21T08:44:40.804Z,29.13
2017-11-21T08:47:08.337Z,28.20
2017-11-21T08:49:35.897Z,27.23
2017-11-21T08:52:03.424Z,25.60
2017-11-21T08:54:32.680Z,29.77
2017-11-21T08:57:00.218Z,32.80
2017-11-21T08:59:27.782Z,35.40
2017-11-21T09:01:55.341Z,44.30
2017-11-21T09:04:22.877Z,38.40
2017-11-21T09:06:50.436Z,34.00
2017-11-21T09:09:17.975Z,40.07
2017-11-21T09:11:45.536Z,39.80
2017-11-21T09:14:13.068Z,36.63
2017-11-21T09:16:40.643Z,42.97
2017-11-21T09:19:08.176Z,45.00
2017-11-21T09:21:35.744Z,41.27
2017-11-21T09:24:03.286Z,43.63
2017-11-21T09:26:30.839Z,46.60
2017-11-21T09:28:58.380Z,36.20
2017-11-21T09:31:25.936Z,39.93
2017-11-21T09:33:53.469Z,40.70
2017-11-21T09:36:21.019Z,38.30
2017-11-21T09:38:48.560Z,38.97
2017-11-21T09:41:16.119Z,34.97
2017-11-21T09:43:43.651Z,29.27
2017-11-21T09:46:11.207Z,33.77
2017-11-21T09:48:38.736Z,38.57
2017-11-21T09:51:07.057Z,42.07
2017-11-21T09:53:34.600Z,43.10
2017-11-21T09:56:02.153Z,29.60
2017-11-21T09:58:29.687Z,33.30
2017-11-21T10:00:57.252Z,34.40
2017-11-21T10:03:25.554Z,30.17
2017-11-21T10:05:53.111Z,31.97
2017-11-21T10:08:20.642Z,35.30
2017-11-21T10:10:48.977Z,37.47
2017-11-21T10:13:16.517Z,35.20
2017-11-21T10:15:44.078Z,37.57
2017-11-21T10:18:11.611Z,36.63
2017-11-21T10:20:39.939Z,46.17
2017-11-21T10:23:07.473Z,39.50
2017-11-21T10:25:35.048Z,38.20
2017-11-21T10:28:02.590Z,40.70
2017-11-21T10:30:30.156Z,40.27
2017-11-21T10:32:57.701Z,45.03
2017-11-21T10:35:25.260Z,40.27
2017-11-21T10:37:52.796Z,43.30
2017-11-21T10:40:20.372Z,39.13
2017-11-21T10:42:48.670Z,32.93
2017-11-21T10:45:16.242Z,44.63
2017-11-21T10:47:43.773Z,37.83
2017-11-21T10:50:11.337Z,39.80
2017-11-21T10:52:38.885Z,37.27
2017-11-21T10:55:07.215Z,38.47
2017-11-21T10:57:34.750Z,35.00
2017-11-21T11:00:02.316Z,32.80
2017-11-21T11:02:29.848Z,42.57
2017-11-21T11:04:57.384Z,41.70
2017-11-21T11:07:25.731Z,32.73
2017-11-21T11:09:53.259Z,32.40
2017-11-21T11:12:20.815Z,30.07
2017-11-21T11:14:48.352Z,33.50
2017-11-21T11:17:16.676Z,28.60
2017-11-21T11:19:44.218Z,29.57
2017-11-21T11:22:11.793Z,28.67
2017-11-21T11:24:39.331Z,33.37
2017-11-21T11:27:06.893Z,27.03
2017-11-21T11:29:34.427Z,24.67
2017-11-21T11:32:02.752Z,26.20
2017-11-21T11:34:30.291Z,26.23
2017-11-21T11:36:57.847Z,26.90
2017-11-21T11:39:25.380Z,22.33
2017-11-21T11:41:53.712Z,23.27
2017-11-21T11:44:21.249Z,22.10
2017-11-21T11:46:48.811Z,25.07
2017-11-21T11:49:16.352Z,25.20
2017-11-21T11:51:44.680Z,26.10
2017-11-21T11:54:12.215Z,21.50
2017-11-21T11:56:39.768Z,23.47
2017-11-21T11:59:07.300Z,20.17
2017-11-21T12:01:35.633Z,20.13
2017-11-21T12:04:03.172Z,20.53
2017-11-21T12:06:30.739Z,18.77
2017-11-21T12:08:58.273Z,16.80
2017-11-21T12:11:25.839Z,17.87
2017-11-21T12:13:53.384Z,20.23
2017-11-21T12:16:21.712Z,15.93
2017-11-21T12:18:49.267Z,16.43
2017-11-21T12:21:16.831Z,24.67
2017-11-21T12:23:44.371Z,16.87
2017-11-21T12:26:11.936Z,14.60
2017-11-21T12:28:39.463Z,18.40
2017-11-21T12:31:07.011Z,13.30
2017-11-21T12:33:35.303Z,14.80
2017-11-21T12:36:02.865Z,13.97
2017-11-21T12:38:30.405Z,12.50
2017-11-21T12:40:58.739Z,13.23
2017-11-21T12:43:26.263Z,14.37
2017-11-21T12:45:53.829Z,11.63
2017-11-21T12:48:21.356Z,12.80
2017-11-21T12:50:49.677Z,15.57
2017-11-21T12:53:17.203Z,14.83
2017-11-21T12:55:45.524Z,12.53
2017-11-21T12:58:13.078Z,12.43
2017-11-21T13:00:41.424Z,14.00
2017-11-21T13:03:09.749Z,14.30
2017-11-21T13:05:37.316Z,11.70
2017-11-21T13:08:04.848Z,9.80
2017-11-21T13:10:32.380Z,10.73
2017-11-21T13:13:00.699Z,13.07
2017-11-21T13:15:28.231Z,13.10
2017-11-21T13:17:55.788Z,11.83
2017-11-21T13:20:23.325Z,12.30
2017-11-21T13:22:51.664Z,13.70
2017-11-21T13:25:19.192Z,14.13
2017-11-21T13:27:46.746Z,11.70
2017-11-21T13:30:14.279Z,11.07
2017-11-21T13:32:42.599Z,12.53
2017-11-21T13:35:10.128Z,11.80
2017-11-21T13:37:38.448Z,11.00
2017-11-21T13:40:05.980Z,14.10
2017-11-21T13:42:33.544Z,10.23
2017-11-21T13:45:01.076Z,12.10
2017-11-21T13:47:29.399Z,13.83
2017-11-21T13:49:56.928Z,12.77
2017-11-21T13:52:24.485Z,13.53
2017-11-21T13:54:52.776Z,13.73
2017-11-21T13:57:20.327Z,14.20
2017-11-21T13:59:47.859Z,14.73
2017-11-21T14:02:15.424Z,15.00
2017-11-21T14:04:42.967Z,17.90
2017-11-21T14:07:10.535Z,15.33
2017-11-21T14:09:38.077Z,14.07
2017-11-21T14:12:05.638Z,11.57
2017-11-21T14:14:33.180Z,16.50
2017-11-21T14:17:00.748Z,12.17
2017-11-21T14:19:28.279Z,15.17
2017-11-21T14:21:55.831Z,14.80
2017-11-21T14:24:23.362Z,12.53
2017-11-21T14:26:51.686Z,14.87
2017-11-21T14:29:19.208Z,11.50
2017-11-21T14:31:47.542Z,17.00
2017-11-21T14:34:15.088Z,13.53
2017-11-21T14:36:42.661Z,14.20
2017-11-21T14:39:10.437Z,14.30
2017-11-21T14:41:38.097Z,12.37
2017-11-21T14:44:05.631Z,12.90
2017-11-21T14:46:33.216Z,13.30
2017-11-21T14:49:00.757Z,12.40
2017-11-21T14:51:28.316Z,18.50
2017-11-21T14:53:55.857Z,15.30
2017-11-21T14:56:23.416Z,17.70
2017-11-21T14:58:50.943Z,17.27
2017-11-21T15:01:19.280Z,14.03
2017-11-21T15:03:46.815Z,20.17
2017-11-21T15:06:14.376Z,13.60
2017-11-21T15:08:41.909Z,16.20
2017-11-21T15:11:10.244Z,19.37
2017-11-21T15:13:37.781Z,15.37
2017-11-21T15:16:05.342Z,18.17
2017-11-21T15:18:32.886Z,17.37
2017-11-21T15:21:00.423Z,13.53
2017-11-21T15:23:28.798Z,16.93
2017-11-21T15:25:57.096Z,14.83
2017-11-21T15:28:24.660Z,13.13
2017-11-21T15:30:52.193Z,14.07
2017-11-21T15:33:20.538Z,16.80
2017-11-21T15:35:48.078Z,13.13
2017-11-21T15:38:15.637Z,14.80
2017-11-21T15:40:43.183Z,13.50
2017-11-21T15:43:11.528Z,13.60
2017-11-21T15:45:39.853Z,15.90
2017-11-21T15:48:07.421Z,14.07
2017-11-21T15:50:34.988Z,13.73
2017-11-21T15:53:02.545Z,13.70
2017-11-21T15:55:30.088Z,16.67
2017-11-21T15:57:57.648Z,15.47
2017-11-21T16:00:25.192Z,13.10
2017-11-21T16:02:52.756Z,15.57
2017-11-21T16:05:20.288Z,13.57
2017-11-21T16:07:48.622Z,15.37
2017-11-21T16:10:16.172Z,17.40
2017-11-21T16:12:43.751Z,18.57
2017-11-21T16:15:11.289Z,15.73
2017-11-21T16:17:38.859Z,15.23
2017-11-21T16:20:06.408Z,17.03
2017-11-21T16:22:33.969Z,21.40
2017-11-21T16:25:01.503Z,16.57
2017-11-21T16:27:29.067Z,17.00
2017-11-21T16:29:56.601Z,19.27
2017-11-21T16:32:24.923Z,13.37
2017-11-21T16:34:52.477Z,18.37
2017-11-21T16:37:20.037Z,15.13
2017-11-21T16:39:47.564Z,19.17
2017-11-21T16:42:15.128Z,21.03
2017-11-21T16:44:42.668Z,15.00
2017-11-21T16:47:10.229Z,18.30
2017-11-21T16:49:37.761Z,19.87
2017-11-21T16:52:06.083Z,28.90
2017-11-21T16:54:34.401Z,28.90
2017-11-21T16:57:01.975Z,28.40
2017-11-21T16:59:29.523Z,21.07
2017-11-21T17:01:57.103Z,28.60
2017-11-21T17:04:24.651Z,22.60
2017-11-21T17:06:52.235Z,19.40
2017-11-21T17:09:19.776Z,16.77
2017-11-21T17:11:47.351Z,12.80
2017-11-21T17:14:14.886Z,13.23
2017-11-21T17:16:42.447Z,15.80
2017-11-21T17:19:09.979Z,15.17
2017-11-21T17:21:37.540Z,20.53
2017-11-21T17:24:05.088Z,10.87
2017-11-21T17:26:32.629Z,15.63
2017-11-21T17:29:00.960Z,14.83
2017-11-21T17:31:28.540Z,12.70
2017-11-21T17:33:56.112Z,16.17
2017-11-21T17:36:23.673Z,17.27
2017-11-21T17:38:51.323Z,14.70
2017-11-21T17:41:18.882Z,13.37
2017-11-21T17:43:46.457Z,16.30
2017-11-21T17:46:13.995Z,10.97
2017-11-21T17:48:41.571Z,11.80
2017-11-21T17:51:09.111Z,12.90
2017-11-21T17:53:36.714Z,14.40
2017-11-21T17:56:05.031Z,15.03
2017-11-21T17:58:32.609Z,16.67
2017-11-21T18:01:00.194Z,17.20
2017-11-21T18:03:27.796Z,15.37
2017-11-21T18:05:55.392Z,13.93
2017-11-21T18:08:22.965Z,12.30
2017-11-21T18:10:50.539Z,13.90
2017-11-21T18:13:18.912Z,11.53
2017-11-21T18:15:46.468Z,17.60
2017-11-21T18:18:14.061Z,14.73
2017-11-21T18:20:41.628Z,14.33
2017-11-21T18:23:09.211Z,11.77
2017-11-21T18:25:36.769Z,12.63
2017-11-21T18:28:04.336Z,13.30
2017-11-21T18:30:31.910Z,17.30
2017-11-21T18:33:02.293Z,14.60
2017-11-21T18:35:29.906Z,12.43
2017-11-21T18:37:57.480Z,16.07
2017-11-21T18:40:25.052Z,13.40
2017-11-21T18:42:53.379Z,19.43
2017-11-21T18:45:20.957Z,14.63
2017-11-21T18:47:48.523Z,18.10
2017-11-21T18:50:26.899Z,18.47
2017-11-21T18:52:54.431Z,11.43
2017-11-21T18:55:22.780Z,14.47
2017-11-21T18:57:50.328Z,18.30
2017-11-21T19:00:17.919Z,15.60
2017-11-21T19:02:46.247Z,17.97
2017-11-21T19:05:13.847Z,18.63
2017-11-21T19:07:41.416Z,25.70
2017-11-21T19:10:09.796Z,22.93
2017-11-21T19:12:37.335Z,16.30
2017-11-21T19:15:04.922Z,17.17
2017-11-21T19:17:33.253Z,14.93
2017-11-21T19:20:00.871Z,17.00
2017-11-21T19:22:29.190Z,22.00
2017-11-21T19:24:56.768Z,21.47
2017-11-21T19:27:25.076Z,20.77
2017-11-21T19:29:53.443Z,20.50
2017-11-21T19:32:20.983Z,21.70
2017-11-21T19:34:48.536Z,15.57
2017-11-21T19:37:16.100Z,15.60
2017-11-21T19:39:44.407Z,15.60
2017-11-21T19:42:12.751Z,19.43
2017-11-21T19:44:40.318Z,12.03
2017-11-21T19:47:07.879Z,11.60
2017-11-21T19:49:35.469Z,13.80
2017-11-21T19:52:03.799Z,11.67
2017-11-21T19:54:31.337Z,12.77
2017-11-21T19:56:58.920Z,14.50
2017-11-21T19:59:26.545Z,12.80
2017-11-21T20:01:54.873Z,10.43
2017-11-21T20:04:22.405Z,12.70
2017-11-21T20:06:49.973Z,15.60
2017-11-21T20:09:17.522Z,12.30
2017-11-21T20:11:45.087Z,11.60
2017-11-21T20:14:12.622Z,11.63
2017-11-21T20:16:41.029Z,13.73
2017-11-21T20:19:08.580Z,13.40
2017-11-21T20:21:36.208Z,16.07
2017-11-21T20:24:04.508Z,12.20
2017-11-21T20:26:32.299Z,18.03
2017-11-21T20:28:59.836Z,13.50
2017-11-21T20:31:27.390Z,9.87
2017-11-21T20:33:54.928Z,14.00
2017-11-21T20:36:23.252Z,13.47
2017-11-21T20:38:50.787Z,10.17
2017-11-21T20:41:18.346Z,13.03
2017-11-21T20:43:45.884Z,14.90
2017-11-21T20:46:14.188Z,27.13
2017-11-21T20:48:41.749Z,13.63
2017-11-21T20:51:09.284Z,16.13
2017-11-21T20:53:37.703Z,17.80
2017-11-21T20:56:05.283Z,16.47
2017-11-21T20:58:32.875Z,16.40
2017-11-21T21:01:00.522Z,14.40
2017-11-21T21:03:28.105Z,13.97
2017-11-21T21:05:56.408Z,12.20
2017-11-21T21:08:24.032Z,13.23
2017-11-21T21:10:51.632Z,13.97
2017-11-21T21:13:19.202Z,16.33
2017-11-21T21:15:46.796Z,17.37
2017-11-21T21:18:14.359Z,15.87
2017-11-21T21:23:24.791Z,30.90
2017-11-21T21:25:52.337Z,17.60
2017-11-21T21:28:20.664Z,19.30
2017-11-21T21:30:48.987Z,21.57
2017-11-21T21:33:17.309Z,25.77
2017-11-21T21:35:44.843Z,22.60
2017-11-21T21:38:12.405Z,18.50
2017-11-21T21:40:39.957Z,25.43
2017-11-21T21:43:07.564Z,16.00
2017-11-21T21:45:35.104Z,19.40
2017-11-21T21:48:02.662Z,18.63
2017-11-21T21:50:30.194Z,17.87
2017-11-21T21:52:57.777Z,19.37
2017-11-21T21:55:25.338Z,19.67
2017-11-21T21:57:52.893Z,15.93
2017-11-21T22:00:20.447Z,16.70
2017-11-21T22:02:47.980Z,17.03
2017-11-21T22:05:16.307Z,16.57
2017-11-21T22:07:43.849Z,16.80
2017-11-21T22:10:11.418Z,17.67
2017-11-21T22:12:38.988Z,19.73
2017-11-21T22:15:06.556Z,16.10
2017-11-21T22:17:34.088Z,17.47
2017-11-21T22:20:01.688Z,17.90
2017-11-21T22:22:29.231Z,19.73
2017-11-21T22:24:56.791Z,17.97
2017-11-21T22:27:25.095Z,17.50
2017-11-21T22:29:52.662Z,19.57
2017-11-21T22:32:20.200Z,20.83
2017-11-21T22:34:47.764Z,18.60
2017-11-21T22:37:15.299Z,19.83
2017-11-21T22:39:42.859Z,18.90
2017-11-21T22:42:10.403Z,16.73
2017-11-21T22:44:37.958Z,18.60
2017-11-21T22:47:05.493Z,22.10
2017-11-21T22:49:33.821Z,21.00
2017-11-21T22:52:01.352Z,16.47
2017-11-21T22:54:28.914Z,20.00
2017-11-21T22:56:56.457Z,22.90
2017-11-21T22:59:24.783Z,19.70
2017-11-21T23:01:52.324Z,16.50
2017-11-21T23:04:19.907Z,21.60
2017-11-21T23:06:47.443Z,17.60
2017-11-21T23:09:15.009Z,21.07
2017-11-21T23:11:42.546Z,23.23
2017-11-21T23:14:10.115Z,23.97
2017-11-21T23:16:37.650Z,24.20
2017-11-21T23:19:05.972Z,25.30
2017-11-21T23:21:33.508Z,21.60
2017-11-21T23:24:01.070Z,21.40
2017-11-21T23:26:28.610Z,21.20
2017-11-21T23:28:56.965Z,24.13
2017-11-21T23:31:24.508Z,17.77
2017-11-21T23:33:52.068Z,20.93
2017-11-21T23:36:19.610Z,24.30
2017-11-21T23:38:47.168Z,22.03
2017-11-21T23:41:14.695Z,17.73
2017-11-21T23:43:42.251Z,23.27
2017-11-21T23:46:09.780Z,19.07
2017-11-21T23:48:37.353Z,21.33
2017-11-21T23:51:05.663Z,19.93
2017-11-21T23:53:33.214Z,17.40
2017-11-21T23:56:00.809Z,18.37
2017-11-21T23:58:28.370Z,21.00
